Archival Weather

Republic

Farmingdale, New York (KFRG)

Report from: Friday, February 23, 2024 9:53 AM EST
Current time: Monday, June 24, 2024 6:28 AM EDT

Current weather – Weather history – Daily summaries
Weather forecast

Temperature7.2°C (45.0°F)
Wind chill5.5°C (41.8°F)
Dew point3.9°C (39.0°F)
Winds 5 kts (2.6 m/s, 5.8 mph) North (360°)
Visibility10 mi. (16.1 km)
Clouds Ceiling: Broken clouds 6,500 ft. (1,981 m)
Overcast 8,500 ft. (2,591 m)
Altimeter29.52 in.Hg (1000 mB)
Relative humidity80 %
Density altitude-356 ft. (-109 m)
Sea-level pressure100.0 kPa (1000 mB, 29.52 in.Hg)
Remarks Automated weather observing station without precipitation discriminator
Pressure rising more quickly
Flight conditions Visual Meteorological Conditions
Raw dataKFRG 231453Z 36005KT 10SM BKN065 OVC085 07/04 A2952 RMK AO1 SLP997 T00720039 53002
An error has occurred. This application may no longer respond until reloaded. Reload 🗙